LexMAWeather

Lexington, Massachusetts, USA

49°F
4/23/2018 10:28pm 
  • Lexington Conditions: Clear
  • Temperature: 48.7°F / 9.3°CColder 1.8°F than last hour.
  • Dew Point: 24.3°FDecreased 0.3°Fsince last hour.
  • Humidity: 38%Increased 2.0% since last hour.
  • Wind: W 3 mph, 10-min avg: 3 mph, gust: 8 mph
  • Barometer: 30.40 in Steady
  • Visibility: 10 miles
  • Rain Today: 0.00 in
  •   

Nearby Reports - Official Weather Stations - Current Conditions

Data from the National Weather Service

KBED - Bedford, Massachusetts, USA


Distance from station: WNW 4mi, 6km

Updated Mon Apr 23, 2018 9:56pm EDT

Clear

Clear

Wind from S

Wind:

S 8 mph , 13 km/h

Temperature: 48°F (9°C)

Wind Chill: 44°F (7°C)

Dew Point: 21°F (-6°C)

Humidity: 34%

Barometer: 30.42 in (1030.1 hPa)

Clouds: Clear

Visibility: 10 miles (16 km)


2018/04/24 01:56 KBED 240156Z 19007KT 10SM CLR 09/M06 A3042 RMK AO2 SLP316 T00941061

KBOS - Boston, Massachusetts, USA


Distance from station: ESE 12mi, 20km

Updated Mon Apr 23, 2018 9:54pm EDT

Clear

Clear

Wind from SSW

Wind:

SSW 13 mph , 20 km/h

Temperature: 48°F (9°C)

Wind Chill: 43°F (6°C)

Dew Point: 25°F (-4°C)

Humidity: 40%

Barometer: 30.44 in (1030.8 hPa)

Clouds: Clear

Visibility: 10 miles (16 km)


2018/04/24 01:54 KBOS 240154Z 20011KT 10SM CLR 09/M04 A3044 RMK AO2 SLP307 T00941044

KOWD - Norwood, Massachusetts, USA


Distance from station: SSE 18mi, 29km

Updated Mon Apr 23, 2018 9:53pm EDT

Clear

Clear

Wind from S

Wind:

S 7 mph , 11 km/h

Temperature: 50°F (10°C)

Wind Chill: 47°F (8°C)

Dew Point: 23°F (-5°C)

Humidity: 35%

Barometer: 30.45 in (1031.2 hPa)

Clouds: Clear

Visibility: 10 miles (16 km)


2018/04/24 01:53 KOWD 240153Z AUTO 18006KT 10SM CLR 10/M05 A3045 RMK AO2 SLP312 T01001050

KBVY - Beverly, Massachusetts, USA


Distance from station: ENE 19mi, 31km

Updated Mon Apr 23, 2018 9:53pm EDT

Clear

Clear

Wind from S

Wind:

S 14 mph , 22 km/h

Temperature: 50°F (10°C)

Wind Chill: 45°F (7°C)

Dew Point: 23°F (-5°C)

Humidity: 35%

Barometer: 30.42 in (1030.1 hPa)

Clouds: Clear

Visibility: 10 miles (16 km)


2018/04/24 01:53 KBVY 240153Z AUTO 18012KT 10SM CLR 10/M05 A3042 RMK AO2 SLP297 T01001050

KLWM - Lawrence, Massachusetts, USA


Distance from station: NNE 20mi, 32km

Updated Mon Apr 23, 2018 9:54pm EDT

Clear

Clear

Wind from S

Wind:

S 9 mph , 15 km/h

Temperature: 54°F (12°C)

Dew Point: 23°F (-5°C)

Humidity: 30%

Barometer: 30.43 in (1030.5 hPa)

Clouds: Clear

Visibility: 10 miles (16 km)


2018/04/24 01:54 KLWM 240154Z 18008KT 10SM CLR 12/M05 A3043 RMK AO2 SLP304 T01221050

KFIT - Fitchburg, Massachusetts, USA


Distance from station: WNW 27mi, 44km

Updated Mon Apr 23, 2018 9:52pm EDT

Clear

Clear

Wind from SSE

Wind:

SSE 8 mph , 13 km/h

Temperature: 55°F (13°C)

Dew Point: 21°F (-6°C)

Humidity: 26%

Barometer: 30.42 in (1030.1 hPa)

Clouds: Clear

Visibility: 10 miles (16 km)


2018/04/24 01:52 KFIT 240152Z AUTO 16007KT 10SM CLR 13/M06 A3042 RMK AO2 SLP304 T01331056

KASH - Nashua/Boire Fld, New Hampshire, USA


Distance from station: NNW 28mi, 44km

Updated Mon Apr 23, 2018 9:56pm EDT

Clear

Clear

Wind from SSE

Wind:

SSE 3 mph , 6 km/h

Temperature: 52°F (11°C)

Dew Point: 25°F (-4°C)

Humidity: 35%

Barometer: 30.42 in (1030.1 hPa)

Clouds: Clear

Visibility: 10 miles (16 km)


2018/04/24 01:56 KASH 240156Z AUTO 16003KT 10SM CLR 11/M04 A3042 RMK AO2 SLP312 T01111039

KORH - Worcester, Massachusetts, USA


Distance from station: WSW 34mi, 55km

Updated Mon Apr 23, 2018 9:54pm EDT

Clear

Clear

Wind from SW

Wind:

SW 12 mph , 19 km/h

Temperature: 48°F (9°C)

Wind Chill: 43°F (6°C)

Dew Point: 21°F (-6°C)

Humidity: 34%

Barometer: 30.43 in (1030.5 hPa)

Clouds: Clear

Visibility: 10 miles (16 km)


2018/04/24 01:54 KORH 240154Z 22010KT 10SM CLR 09/M06 A3043 RMK AO2 SLP308 T00891061

KMHT - Manchester, New Hampshire, USA


Distance from station: NNW 35mi, 57km

Updated Mon Apr 23, 2018 9:53pm EDT

Clear

Clear

Wind from S

Wind:

S 8 mph , 13 km/h

Temperature: 54°F (12°C)

Dew Point: 19°F (-7°C)

Humidity: 26%

Barometer: 30.39 in (1029.1 hPa)

Clouds: Clear

Visibility: 10 miles (16 km)


2018/04/24 01:53 KMHT 240153Z 18007KT 10SM CLR 12/M07 A3039 RMK AO2 SLP306 T01221067

KGHG - Marshfield, Massachusetts, USA


Distance from station: SE 38mi, 60km

Updated Mon Apr 23, 2018 10:15pm EDT

Clear

Clear

Wind from SW

Wind:

SW 5 mph , 7 km/h

Temperature: 46°F (8°C)

Wind Chill: 44°F (7°C)

Dew Point: 28°F (-2°C)

Humidity: 50%

Barometer: 30.45 in (1031.2 hPa)

Clouds: Clear

Visibility: 10 miles (16 km)


2018/04/24 02:15 KGHG 240215Z AUTO 22004KT 10SM CLR 08/M02 A3045 RMK AO2

KSFZ - Pawtucket, Rhode Island, USA


Distance from station: SSW 39mi, 62km

Updated Mon Apr 23, 2018 9:56pm EDT

Clear

Clear

Temperature: 45°F (7°C)

Dew Point: 19°F (-7°C)

Humidity: 37%

Barometer: 30.46 in (1031.5 hPa)

Clouds: Clear

Visibility: 10 miles (16 km)


2018/04/24 01:56 KSFZ 240156Z AUTO 10SM CLR 07/M07 A3046 RMK AO2 SLP260 T00721067 $

KTAN - Taunton, Massachusetts, USA


Distance from station: SSE 40mi, 65km

Updated Mon Apr 23, 2018 9:52pm EDT

Clear

Clear

Wind from calm

Wind:

Calm

Temperature: 39°F (4°C)

Dew Point: 27°F (-3°C)

Humidity: 61%

Barometer: 30.47 in (1031.8 hPa)

Clouds: Clear

Visibility: 10 miles (16 km)


2018/04/24 01:52 KTAN 240152Z AUTO 00000KT 10SM CLR 04/M03 A3047 RMK AO2 SLP316 T00391028

KPYM - Plymouth, Massachusetts, USA


Distance from station: SE 44mi, 72km

Updated Mon Apr 23, 2018 9:52pm EDT

Clear

Clear

Wind from SE

Wind:

SE 3 mph , 6 km/h

Temperature: 45°F (7°C)

Dew Point: 34°F (1°C)

Humidity: 66%

Barometer: 30.46 in (1031.5 hPa)

Clouds: Clear

Visibility: 10 miles (16 km)


2018/04/24 01:52 KPYM 240152Z AUTO 14003KT 10SM CLR 07/01 A3046 RMK AO2 SLP315 T00670006

KAFN - Jaffrey, New Hampshire, USA


Distance from station: WNW 46mi, 74km

Updated Mon Apr 23, 2018 9:52pm EDT

Clear

Clear

Wind from calm

Wind:

Calm

Temperature: 45°F (7°C)

Dew Point: 32°F (0°C)

Humidity: 61%

Barometer: 30.40 in (1029.5 hPa)

Clouds: Clear

Visibility: 10 miles (16 km)


2018/04/24 01:52 KAFN 240152Z AUTO 00000KT 10SM CLR 07/00 A3040 RMK AO2 SLP305 T00720000

KPSM - Portsmouth/Pease, New Hampshire, USA


Distance from station: NNE 48mi, 78km

Updated Mon Apr 23, 2018 9:56pm EDT

Clear

Clear

Wind from SSE

Wind:

SSE 7 mph , 11 km/h

Temperature: 46°F (8°C)

Wind Chill: 42°F (6°C)

Dew Point: 23°F (-5°C)

Humidity: 40%

Barometer: 30.39 in (1029.1 hPa)

Clouds: Clear

Visibility: 10 miles (16 km)


2018/04/24 01:56 KPSM 240156Z 16006KT 10SM CLR 08/M05 A3039 RMK AO2A SLP294 T00811054

KPVD - Providence/Green, Rhode Island, USA


Distance from station: S 51mi, 82km

Updated Mon Apr 23, 2018 9:51pm EDT

Clear

Clear

Wind from SSW

Wind:

SSW 6 mph , 9 km/h

Temperature: 45°F (7°C)

Wind Chill: 42°F (6°C)

Dew Point: 28°F (-2°C)

Humidity: 53%

Barometer: 30.48 in (1032.2 hPa)

Clouds: Clear

Visibility: 10 miles (16 km)


2018/04/24 01:51 KPVD 240151Z 21005KT 10SM CLR 07/M02 A3048 RMK AO2 SLP321 T00721017

KCON - Concord, New Hampshire, USA


Distance from station: NNW 54mi, 87km

Updated Mon Apr 23, 2018 9:51pm EDT

Clear

Clear

Wind from SSE

Wind:

SSE 7 mph , 11 km/h

Temperature: 52°F (11°C)

Dew Point: 19°F (-7°C)

Humidity: 28%

Barometer: 30.40 in (1029.5 hPa)

Clouds: Clear

Visibility: 10 miles (16 km)


2018/04/24 01:51 KCON 240151Z AUTO 16006KT 10SM CLR 11/M07 A3040 RMK AO2 SLP295 T01061067

KEWB - New Bedford, Massachusetts, USA


Distance from station: SSE 54mi, 87km

Updated Mon Apr 23, 2018 9:53pm EDT

Wind from SSW

Wind:

SSW 5 mph , 7 km/h

Temperature: 43°F (6°C)

Wind Chill: 40°F (4°C)

Dew Point: 34°F (1°C)

Humidity: 71%

Barometer: 30.46 in (1031.5 hPa)

Visibility: 10 miles (16 km)


2018/04/24 01:53 KEWB 240153Z 21004KT 10SM 06/01 A3046 RMK AO2 SLP314 T00610011 $

KMWN - Mount Washington, New Hampshire, USA


Distance from station: N 126mi, 203km

Updated Mon Apr 23, 2018 9:58pm EDT

Few Clouds

Few Clouds

Wind from WSW

Wind:

WSW 43 mph , 69 km/h

Temperature: 30°F (-1°C)

Wind Chill: 13°F (-11°C)

Dew Point: 14°F (-10°C)

Humidity: 51%

Clouds: Few Clouds

Visibility: 110 miles (176 km)

Cloud details: Few Clouds 17000 ft
Few Clouds 20000 ft


2018/04/24 01:58 KMWN 240158Z 25037KT 110SM FEW170 FEW200 M01/M10 RMK